54  °F
Temperature
12  °C
Temperature
5  °C
 Dewpoint
41  °F
  Dewpoint
63  %
 Humidity
  Temperature
15  mph
Wind Speed
13  kts
Wind Speed
24  km/h
Wind Speed
6.7  m/s
Wind Speed
320°
North West

Wind Speed
Overcast
Conditions
Pressure 30.04 (inHG) - 1017.32 (mb)
Visibility 10.0 (mi) - 16.1 (km)

Sky Conditions
KYIP
Location Willow Run 3 mi (4.83 km)
Metar :KYIP 202201Z 32013KT 10SM OVC032 12/05 A3004 RMK AO2 T01220050
Mon 20th May 18:01 pm

Nearest Airport
https://www.checkwx.com/weather/KYIP
  Metar Aviation API Data Provided by https://www.checkwx.com/ Original CSS/SVG/PHP scripts by weather34.com © 2015-2019